Gerd Maersk — OYGM2 — position and weather

sailwx.info

Track history (hours):
 
Tides and Currents Weather Stations Pressure Air Temp Water Temp Dewpoint Dewpoint Depression Visibility Wind Speed Wind Dir Waves Ship Positions

Gerd Maersk

Last reported at 2017-Apr-19 22:52 UTC. Time now 2017-Apr-27 03:20 UTC.
Position N 35°58' E 120°32'.

Length 367 m; draft 12.4 m.

Type: Ship (hazmat cat A). MMSI: 220415000.

Date/timePositionNaut miles runAvg speedWind from/ knotsBaromVisibWave heightAir tempDewpointWater temp
2017-Apr-19 22:52N 35°58' E 120°32'719.1
2017-Apr-19 22:30N 36°00' E 120°24'5 0.3
2017-Apr-19 03:02N 36°02' E 120°18'010.5
2017-Apr-19 03:00N 36°02' E 120°19'611.2
2017-Apr-19 02:31N 36°01' E 120°25'5 9.7
2017-Apr-19 01:58N 35°60' E 120°32'13813.0
2017-Apr-18 15:25N 37°24' E 122°48'1718.1
2017-Apr-18 14:29N 37°39' E 122°38'1818.2
2017-Apr-18 13:30N 37°55' E 122°28'1718.4
2017-Apr-18 12:35N 38°10' E 122°18'218.6
2017-Apr-18 12:29N 38°11' E 122°17'1618.6
2017-Apr-18 11:38N 38°25' E 122°07'318.8
2017-Apr-18 11:29N 38°28' E 122°05'1018.7
2017-Apr-18 10:58N 38°36' E 121°60'818.2
2017-Apr-18 10:30N 38°44' E 121°57'1117.2
2017-Apr-18 09:54N 38°55' E 121°56'5 0.4
2017-Apr-17 20:19N 38°49' E 121°57'411.5
2017-Apr-17 20:01N 38°46' E 121°59'4 7.5
2017-Apr-17 19:30N 38°43' E 122°02'0 0.9
2017-Apr-17 19:00N 38°43' E 122°02'0 1.0
2017-Apr-17 18:31N 38°43' E 122°01'1 1.9
2017-Apr-17 18:00N 38°43' E 121°60'0 0.4
2017-Apr-17 17:31N 38°43' E 121°60'2 3.4
2017-Apr-17 17:00N 38°44' E 121°60'2 3.7
2017-Apr-17 16:24N 38°45' E 121°57'1 3.3
2017-Apr-17 16:01N 38°44' E 121°57'5 8.8
2017-Apr-17 15:29N 38°40' E 121°54'6 9.8
2017-Apr-17 14:51N 38°36' E 121°48'4 9.8
2017-Apr-17 14:29N 38°33' E 121°46'19 9.3
2017-Apr-17 12:30N 38°27' E 121°23'43 8.1
2017-Apr-17 07:09N 38°37' E 120°29'6 7.7
2017-Apr-17 06:25N 38°37' E 120°22'3 7.8
2017-Apr-17 06:00N 38°38' E 120°18'4 8.0
2017-Apr-17 05:30N 38°38' E 120°13'116 3.8
2017-Apr-15 22:59N 38°59' E 117°47'22 8.0
2017-Apr-15 20:11N 38°52' E 118°14'410.5
2017-Apr-15 19:50N 38°51' E 118°19'613.5
2017-Apr-15 19:25N 38°51' E 118°26'13314.8
2017-Apr-15 10:24N 38°29' E 121°15'714.8
2017-Apr-15 09:57N 38°27' E 121°23'714.4
2017-Apr-15 09:30N 38°24' E 121°30'813.9
2017-Apr-15 08:57N 38°21' E 121°39'40210.9
2017-Apr-13 20:14N 34°56' E 128°50'  
Track history (hours):
 
Tides and Currents Weather Stations Pressure Air Temp Water Temp Dewpoint Dewpoint Depression Visibility Wind Speed Wind Dir Waves Ship Positions

Gerd Maersk

Last reported at 2017-Apr-19 22:52 UTC. Time now 2017-Apr-27 03:20 UTC.
Position N 35°58' E 120°32'.

Length 367 m; draft 12.4 m.

Type: Ship (hazmat cat A). MMSI: 220415000.

Date/timePositionNaut miles runAvg speedWind from/ knotsBaromVisibWave heightAir tempDewpointWater temp
2017-Apr-19 22:52N 35°58' E 120°32'719.1
2017-Apr-19 22:30N 36°00' E 120°24'5 0.3
2017-Apr-19 03:02N 36°02' E 120°18'010.5
2017-Apr-19 03:00N 36°02' E 120°19'611.2
2017-Apr-19 02:31N 36°01' E 120°25'5 9.7
2017-Apr-19 01:58N 35°60' E 120°32'13813.0
2017-Apr-18 15:25N 37°24' E 122°48'1718.1
2017-Apr-18 14:29N 37°39' E 122°38'1818.2
2017-Apr-18 13:30N 37°55' E 122°28'1718.4
2017-Apr-18 12:35N 38°10' E 122°18'218.6
2017-Apr-18 12:29N 38°11' E 122°17'1618.6
2017-Apr-18 11:38N 38°25' E 122°07'318.8
2017-Apr-18 11:29N 38°28' E 122°05'1018.7
2017-Apr-18 10:58N 38°36' E 121°60'818.2
2017-Apr-18 10:30N 38°44' E 121°57'1117.2
2017-Apr-18 09:54N 38°55' E 121°56'5 0.4
2017-Apr-17 20:19N 38°49' E 121°57'411.5
2017-Apr-17 20:01N 38°46' E 121°59'4 7.5
2017-Apr-17 19:30N 38°43' E 122°02'0 0.9
2017-Apr-17 19:00N 38°43' E 122°02'0 1.0
2017-Apr-17 18:31N 38°43' E 122°01'1 1.9
2017-Apr-17 18:00N 38°43' E 121°60'0 0.4
2017-Apr-17 17:31N 38°43' E 121°60'2 3.4
2017-Apr-17 17:00N 38°44' E 121°60'2 3.7
2017-Apr-17 16:24N 38°45' E 121°57'1 3.3
2017-Apr-17 16:01N 38°44' E 121°57'5 8.8
2017-Apr-17 15:29N 38°40' E 121°54'6 9.8
2017-Apr-17 14:51N 38°36' E 121°48'4 9.8
2017-Apr-17 14:29N 38°33' E 121°46'19 9.3
2017-Apr-17 12:30N 38°27' E 121°23'43 8.1
2017-Apr-17 07:09N 38°37' E 120°29'6 7.7
2017-Apr-17 06:25N 38°37' E 120°22'3 7.8
2017-Apr-17 06:00N 38°38' E 120°18'4 8.0
2017-Apr-17 05:30N 38°38' E 120°13'116 3.8
2017-Apr-15 22:59N 38°59' E 117°47'22 8.0
2017-Apr-15 20:11N 38°52' E 118°14'410.5
2017-Apr-15 19:50N 38°51' E 118°19'613.5
2017-Apr-15 19:25N 38°51' E 118°26'13314.8
2017-Apr-15 10:24N 38°29' E 121°15'714.8
2017-Apr-15 09:57N 38°27' E 121°23'714.4
2017-Apr-15 09:30N 38°24' E 121°30'813.9
2017-Apr-15 08:57N 38°21' E 121°39'40210.9
2017-Apr-13 20:14N 34°56' E 128°50'  

Dump ship's entire track history